Time;durP1;ratioP1;P1;durP2;ratioP2;P2;SDS_P1;SDS_P2;PMS_P1;PMS_P2;Temp;Humidity;BMP_temperature;BMP_pressure;BME280_temperature;BME280_humidity;BME280_pressure;Samples;Min_cycle;Max_cycle;Signal;HPM_P1;HPM_P2
2024/01/21 00:00:42;;;;;;;9.40;5.60;;;11.60;38.40;;;;;;5051507;28;20447;-77
2024/01/21 00:03:10;;;;;;;7.17;5.47;;;11.60;38.50;;;;;;5050609;28;20530;-77
2024/01/21 00:05:39;;;;;;;7.40;5.10;;;11.60;38.30;;;;;;5051067;28;20457;-77
2024/01/21 00:08:07;;;;;;;6.90;5.10;;;11.70;38.30;;;;;;5054339;28;20461;-77
2024/01/21 00:10:35;;;;;;;7.97;5.40;;;11.70;38.20;;;;;;5051595;28;20473;-75
2024/01/21 00:13:04;;;;;;;7.70;5.20;;;11.70;38.20;;;;;;5050750;28;20512;-76
2024/01/21 00:15:32;;;;;;;9.43;5.27;;;11.80;38.10;;;;;;5053243;28;20535;-77
2024/01/21 00:18:01;;;;;;;6.70;4.80;;;11.70;38.20;;;;;;5052656;28;20446;-76
2024/01/21 00:20:32;;;;;;;7.03;5.00;;;11.80;38.30;;;;;;5050970;28;20439;-77
2024/01/21 00:23:00;;;;;;;7.23;4.73;;;11.80;38.40;;;;;;5050409;28;20462;-77
2024/01/21 00:25:28;;;;;;;6.97;5.20;;;11.80;38.30;;;;;;5050737;28;20550;-76
2024/01/21 00:27:56;;;;;;;5.03;4.40;;;11.80;38.40;;;;;;5051078;28;20546;-77
2024/01/21 00:30:25;;;;;;;7.80;4.80;;;11.80;38.20;;;;;;5051339;28;20439;-76
2024/01/21 00:32:53;;;;;;;7.03;5.27;;;11.90;38.40;;;;;;5051115;28;20471;-77
2024/01/21 00:35:22;;;;;;;6.20;4.57;;;11.80;38.20;;;;;;5060126;28;20570;-76
2024/01/21 00:37:50;;;;;;;5.27;4.60;;;11.90;38.20;;;;;;5052111;28;20439;-76
2024/01/21 00:40:18;;;;;;;6.33;4.73;;;11.80;38.30;;;;;;5052968;28;20512;-76
2024/01/21 00:42:46;;;;;;;7.57;5.10;;;11.90;38.30;;;;;;5051535;28;21078;-76
2024/01/21 00:45:14;;;;;;;5.73;4.63;;;11.90;38.20;;;;;;5056913;28;20453;-77
2024/01/21 00:47:44;;;;;;;7.13;4.30;;;11.90;38.10;;;;;;5051959;28;20955;-76
2024/01/21 00:50:12;;;;;;;6.20;4.37;;;11.90;38.10;;;;;;5050759;28;20446;-76
2024/01/21 00:52:40;;;;;;;7.33;5.00;;;11.90;38.10;;;;;;5050446;28;20497;-75
2024/01/21 00:55:09;;;;;;;7.37;5.00;;;11.90;38.10;;;;;;5051133;28;20509;-75
2024/01/21 00:57:37;;;;;;;5.23;4.47;;;11.80;38.00;;;;;;5056690;28;20494;-76
2024/01/21 01:00:06;;;;;;;5.27;4.40;;;11.80;38.00;;;;;;5054890;28;20442;-75
2024/01/21 01:02:34;;;;;;;7.30;5.10;;;11.80;38.20;;;;;;5050231;28;20467;-76
2024/01/21 01:05:04;;;;;;;5.93;4.67;;;11.90;38.10;;;;;;5050643;28;20449;-77
2024/01/21 01:07:32;;;;;;;4.40;4.00;;;11.80;38.00;;;;;;5051412;28;20533;-76
2024/01/21 01:10:00;;;;;;;5.10;4.50;;;11.80;38.10;;;;;;5057062;28;20469;-76
2024/01/21 01:12:28;;;;;;;5.30;4.13;;;11.90;38.00;;;;;;5050480;28;20462;-76
2024/01/21 01:14:56;;;;;;;5.10;4.30;;;11.80;37.90;;;;;;5053695;28;20466;-74
2024/01/21 01:17:24;;;;;;;4.50;3.80;;;11.80;37.90;;;;;;5054246;28;21015;-77
2024/01/21 01:19:52;;;;;;;5.43;4.10;;;11.80;37.80;;;;;;5054235;28;20466;-77
2024/01/21 01:22:22;;;;;;;4.00;3.60;;;11.80;37.80;;;;;;5057424;28;20466;-76
2024/01/21 01:24:50;;;;;;;4.80;4.10;;;11.80;38.00;;;;;;5055273;28;20509;-77
2024/01/21 01:27:18;;;;;;;7.90;3.70;;;11.80;37.80;;;;;;5059610;28;20447;-77
2024/01/21 01:29:46;;;;;;;5.23;4.20;;;11.80;37.80;;;;;;5054193;28;20512;-77
2024/01/21 01:32:14;;;;;;;4.00;3.60;;;11.80;37.80;;;;;;5054064;28;20977;-77
2024/01/21 01:34:42;;;;;;;5.33;4.10;;;11.80;37.90;;;;;;5054209;28;20476;-76
2024/01/21 01:37:11;;;;;;;4.57;3.23;;;11.80;37.80;;;;;;5054067;28;20454;-75
2024/01/21 01:39:41;;;;;;;4.43;4.00;;;11.90;37.90;;;;;;5054438;28;20442;-76
2024/01/21 01:42:08;;;;;;;4.20;3.80;;;11.90;37.80;;;;;;5051801;28;20430;-77
2024/01/21 01:44:40;;;;;;;6.20;3.63;;;11.90;37.60;;;;;;5054133;28;20427;-77
2024/01/21 01:47:08;;;;;;;4.13;3.50;;;11.80;37.80;;;;;;5057896;28;20434;-77
2024/01/21 01:49:36;;;;;;;3.97;3.67;;;11.90;37.70;;;;;;5054211;28;20514;-77
2024/01/21 01:52:05;;;;;;;4.90;3.70;;;11.90;37.80;;;;;;5057069;28;20438;-76
2024/01/21 01:54:33;;;;;;;5.10;3.80;;;11.90;37.70;;;;;;5054358;28;20508;-77
2024/01/21 01:57:02;;;;;;;4.77;3.67;;;11.90;37.60;;;;;;5059909;28;20438;-77
2024/01/21 01:59:30;;;;;;;4.53;3.80;;;11.90;37.80;;;;;;5046772;28;20525;-77
2024/01/21 02:01:58;;;;;;;3.50;3.20;;;11.90;37.70;;;;;;5055571;28;20437;-76
2024/01/21 02:04:26;;;;;;;3.90;3.60;;;11.90;37.70;;;;;;5053686;28;20528;-76
2024/01/21 02:06:54;;;;;;;3.53;3.20;;;11.90;37.70;;;;;;5053614;28;20460;-75
2024/01/21 02:09:22;;;;;;;3.50;3.03;;;11.90;37.70;;;;;;5053420;28;20427;-75
2024/01/21 02:11:50;;;;;;;5.27;3.97;;;11.90;37.60;;;;;;5056349;28;20512;-75
2024/01/21 02:14:20;;;;;;;4.07;3.67;;;11.90;37.90;;;;;;5055539;28;20506;-77
2024/01/21 02:16:47;;;;;;;3.60;3.30;;;11.90;37.90;;;;;;5077748;28;20445;-75
2024/01/21 02:19:22;;;;;;;3.83;3.27;;;11.90;37.80;;;;;;5071930;28;20442;-77
2024/01/21 02:21:50;;;;;;;3.63;3.27;;;11.90;37.90;;;;;;5065129;28;20988;-76
2024/01/21 02:24:20;;;;;;;5.30;3.57;;;12.00;37.90;;;;;;5059200;28;20462;-76
2024/01/21 02:26:48;;;;;;;3.30;3.00;;;11.90;38.00;;;;;;5059481;28;20500;-76
2024/01/21 02:29:16;;;;;;;3.50;3.20;;;12.00;38.10;;;;;;5054024;28;20449;-76
2024/01/21 02:31:47;;;;;;;4.13;3.27;;;12.00;38.10;;;;;;5052884;28;20457;-76
2024/01/21 02:34:15;;;;;;;3.90;3.20;;;12.00;38.10;;;;;;5047211;28;20470;-76
2024/01/21 02:36:43;;;;;;;4.13;2.93;;;12.00;38.20;;;;;;5052860;28;20454;-74
2024/01/21 02:39:11;;;;;;;7.20;3.40;;;12.00;38.10;;;;;;5051295;28;20453;-76
2024/01/21 02:41:41;;;;;;;5.23;3.80;;;11.90;38.10;;;;;;5056154;28;20537;-75
2024/01/21 02:44:09;;;;;;;3.30;3.00;;;12.00;38.10;;;;;;5052602;28;20567;-76
2024/01/21 02:46:36;;;;;;;3.13;2.83;;;11.90;38.00;;;;;;5052961;28;20471;-77
2024/01/21 02:49:04;;;;;;;3.87;3.37;;;11.90;38.10;;;;;;5053071;28;20434;-76
2024/01/21 02:51:32;;;;;;;5.60;3.10;;;12.00;38.00;;;;;;5052117;28;20441;-76
2024/01/21 02:54:00;;;;;;;3.20;2.90;;;11.90;38.00;;;;;;5054622;28;20535;-76
2024/01/21 02:56:28;;;;;;;3.33;3.07;;;12.00;37.80;;;;;;5050967;28;20540;-76
2024/01/21 02:58:58;;;;;;;2.87;2.53;;;12.00;37.90;;;;;;5052339;28;20828;-75
2024/01/21 03:01:26;;;;;;;3.43;3.13;;;11.90;37.90;;;;;;5045282;28;20431;-75
2024/01/21 03:03:54;;;;;;;3.30;3.03;;;11.90;37.70;;;;;;5053595;28;20462;-76
2024/01/21 03:06:22;;;;;;;5.23;2.90;;;11.90;37.70;;;;;;5050651;28;20440;-73
2024/01/21 03:08:50;;;;;;;3.00;2.70;;;11.90;37.70;;;;;;5050227;28;20950;-75
2024/01/21 03:11:19;;;;;;;3.70;2.70;;;11.90;37.50;;;;;;5049611;28;20533;-75
2024/01/21 03:13:47;;;;;;;3.07;2.83;;;11.90;37.60;;;;;;5052710;28;20505;-76
2024/01/21 03:16:16;;;;;;;4.00;3.27;;;11.90;37.50;;;;;;5052637;28;20573;-75
2024/01/21 03:18:44;;;;;;;3.57;3.27;;;11.90;37.40;;;;;;5048977;28;20530;-74
2024/01/21 03:21:12;;;;;;;3.50;3.20;;;11.90;37.40;;;;;;5055709;28;20447;-75
2024/01/21 03:23:40;;;;;;;2.90;2.50;;;12.00;37.40;;;;;;5054711;28;20467;-75
2024/01/21 03:26:08;;;;;;;3.30;3.00;;;12.00;37.30;;;;;;5052757;28;20434;-75
2024/01/21 03:28:36;;;;;;;3.53;3.23;;;11.90;37.20;;;;;;5071798;28;20524;-75
2024/01/21 03:31:05;;;;;;;2.53;2.33;;;12.00;37.10;;;;;;5061101;28;20434;-75
2024/01/21 03:33:34;;;;;;;2.77;2.57;;;11.90;37.10;;;;;;5032736;28;20538;-75
2024/01/21 03:36:03;;;;;;;2.97;2.50;;;11.90;36.90;;;;;;5039907;28;20485;-75
2024/01/21 03:38:30;;;;;;;2.57;2.40;;;11.90;36.80;;;;;;5065405;28;20435;-74
2024/01/21 03:40:58;;;;;;;4.73;2.47;;;11.90;36.50;;;;;;5062166;28;20469;-75
2024/01/21 03:43:26;;;;;;;2.60;2.40;;;11.90;36.80;;;;;;5063796;28;20529;-75
2024/01/21 03:45:54;;;;;;;2.50;2.40;;;11.90;36.50;;;;;;5060931;28;20529;-75
2024/01/21 03:48:21;;;;;;;2.70;2.30;;;11.90;36.50;;;;;;5061648;28;20500;-74
2024/01/21 03:50:51;;;;;;;2.50;2.30;;;11.90;36.20;;;;;;5057324;28;20434;-74
2024/01/21 03:53:19;;;;;;;2.60;2.40;;;11.90;36.30;;;;;;5054384;28;20595;-74
2024/01/21 03:55:47;;;;;;;3.17;2.87;;;11.90;36.20;;;;;;5062588;28;20553;-75
2024/01/21 03:58:15;;;;;;;2.80;2.07;;;12.00;36.30;;;;;;5056130;28;20530;-75
2024/01/21 04:00:42;;;;;;;2.17;1.97;;;12.00;36.10;;;;;;5033249;28;21024;-74
2024/01/21 04:03:11;;;;;;;2.37;2.27;;;12.00;36.10;;;;;;5046825;28;20465;-75
2024/01/21 04:05:39;;;;;;;2.13;2.03;;;11.90;35.90;;;;;;5051874;28;20438;-75
2024/01/21 04:08:08;;;;;;;3.83;2.33;;;11.90;35.90;;;;;;5052080;28;20459;-75
2024/01/21 04:10:36;;;;;;;2.10;1.90;;;12.00;36.00;;;;;;5043243;28;20515;-74
2024/01/21 04:13:04;;;;;;;2.40;2.20;;;12.00;35.80;;;;;;5051649;28;20548;-75
2024/01/21 04:15:34;;;;;;;2.83;2.63;;;12.00;35.80;;;;;;5053770;28;20463;-75
2024/01/21 04:18:02;;;;;;;2.63;2.30;;;12.00;35.80;;;;;;5052069;28;20447;-75
2024/01/21 04:20:31;;;;;;;2.40;2.20;;;12.00;35.80;;;;;;5051613;28;20443;-75
2024/01/21 04:22:59;;;;;;;2.60;2.40;;;12.00;35.90;;;;;;5050858;28;20486;-75
2024/01/21 04:25:28;;;;;;;2.57;2.37;;;12.00;35.70;;;;;;5051385;28;20510;-75
2024/01/21 04:27:56;;;;;;;2.07;1.97;;;12.00;35.70;;;;;;5050652;28;20446;-75
2024/01/21 04:30:24;;;;;;;2.47;2.27;;;12.00;35.50;;;;;;5043202;28;20475;-74
2024/01/21 04:32:54;;;;;;;2.00;1.90;;;11.90;35.40;;;;;;5050588;28;20505;-75
2024/01/21 04:35:22;;;;;;;2.00;1.80;;;12.00;35.60;;;;;;5051638;28;20446;-74
2024/01/21 04:37:50;;;;;;;2.60;2.37;;;12.00;35.30;;;;;;5051515;28;20447;-75
2024/01/21 04:40:18;;;;;;;2.40;2.20;;;11.90;35.20;;;;;;5051665;28;20474;-76
2024/01/21 04:42:48;;;;;;;2.20;2.10;;;11.90;35.20;;;;;;5047708;28;20458;-75
2024/01/21 04:45:16;;;;;;;2.50;2.30;;;11.90;35.00;;;;;;5051457;28;20443;-73
2024/01/21 04:47:44;;;;;;;2.10;2.00;;;12.00;35.10;;;;;;5048866;28;20536;-75
2024/01/21 04:50:12;;;;;;;2.50;2.30;;;12.00;35.10;;;;;;5055124;28;20448;-75
2024/01/21 04:52:40;;;;;;;2.90;2.33;;;12.00;34.90;;;;;;5047043;28;20460;-74
2024/01/21 04:55:09;;;;;;;2.00;1.90;;;12.00;34.80;;;;;;5055492;28;20434;-75
2024/01/21 04:57:37;;;;;;;2.70;2.50;;;12.00;34.80;;;;;;5042068;28;20529;-75
2024/01/21 05:00:08;;;;;;;2.30;2.20;;;12.00;34.80;;;;;;5058167;28;20515;-75
2024/01/21 05:02:36;;;;;;;2.50;2.30;;;12.00;34.70;;;;;;5054648;28;20473;-75
2024/01/21 05:05:04;;;;;;;2.73;2.53;;;12.00;34.80;;;;;;5050538;28;20442;-75
2024/01/21 05:07:32;;;;;;;2.60;2.40;;;12.00;34.80;;;;;;5053024;28;20461;-75
2024/01/21 05:10:01;;;;;;;3.00;2.40;;;11.90;34.90;;;;;;5055229;28;20434;-74
2024/01/21 05:12:29;;;;;;;2.70;2.50;;;12.00;34.90;;;;;;5054587;28;20462;-75
2024/01/21 05:14:57;;;;;;;2.10;2.00;;;12.00;34.90;;;;;;5055107;28;20466;-74
2024/01/21 05:17:27;;;;;;;2.60;2.40;;;11.90;34.80;;;;;;5054770;28;20480;-74
2024/01/21 05:19:55;;;;;;;2.13;2.03;;;12.00;34.90;;;;;;5048734;28;20477;-75
2024/01/21 05:22:23;;;;;;;2.10;2.00;;;12.00;35.00;;;;;;5053219;28;20524;-75
2024/01/21 05:24:51;;;;;;;2.70;2.50;;;12.00;34.70;;;;;;5054792;28;20537;-75
2024/01/21 05:27:21;;;;;;;2.67;2.47;;;11.90;34.90;;;;;;5052116;28;20470;-75
2024/01/21 05:29:50;;;;;;;2.80;2.60;;;11.90;34.80;;;;;;5054675;28;20474;-76
2024/01/21 05:32:17;;;;;;;3.73;2.80;;;11.90;34.90;;;;;;5057241;28;20883;-75
2024/01/21 05:34:47;;;;;;;2.53;2.33;;;11.90;34.70;;;;;;5047172;28;20553;-74
2024/01/21 05:37:15;;;;;;;3.03;2.73;;;11.90;34.80;;;;;;5047297;28;20978;-73
2024/01/21 05:39:43;;;;;;;3.40;2.83;;;11.90;34.70;;;;;;5075869;28;20447;-75
2024/01/21 05:42:11;;;;;;;2.80;2.60;;;11.90;34.60;;;;;;5070461;28;20450;-75
2024/01/21 05:44:39;;;;;;;2.97;2.77;;;11.90;34.70;;;;;;5068429;28;20461;-74
2024/01/21 05:47:07;;;;;;;3.13;2.83;;;12.00;34.60;;;;;;5057770;28;20447;-75
2024/01/21 05:49:36;;;;;;;2.60;2.40;;;11.90;34.60;;;;;;5056855;28;20446;-76
2024/01/21 05:52:06;;;;;;;3.10;2.80;;;11.90;34.50;;;;;;5054858;28;20542;-75
2024/01/21 05:54:34;;;;;;;3.40;2.90;;;11.90;34.60;;;;;;5049450;28;20494;-75
2024/01/21 05:57:02;;;;;;;3.20;2.50;;;11.90;34.60;;;;;;5054614;28;20557;-75
2024/01/21 05:59:31;;;;;;;2.53;2.33;;;11.90;34.60;;;;;;5054125;28;20516;-74
2024/01/21 06:01:59;;;;;;;2.70;2.60;;;11.90;34.50;;;;;;5051697;28;20454;-75
2024/01/21 06:04:27;;;;;;;3.20;2.90;;;12.00;34.60;;;;;;5046309;28;20465;-73
2024/01/21 06:06:55;;;;;;;2.73;2.50;;;11.90;34.60;;;;;;5054271;28;20526;-75
2024/01/21 06:09:24;;;;;;;4.30;3.10;;;11.90;34.60;;;;;;5052652;28;20443;-75
2024/01/21 06:11:52;;;;;;;3.23;2.93;;;11.90;34.40;;;;;;5053886;28;20434;-76
2024/01/21 06:14:23;;;;;;;2.93;2.63;;;11.90;34.50;;;;;;5054465;28;20549;-75
2024/01/21 06:16:52;;;;;;;3.37;2.93;;;11.90;34.40;;;;;;5054301;28;20470;-75
2024/01/21 06:19:20;;;;;;;2.83;2.63;;;11.90;34.40;;;;;;5054184;28;20443;-75
2024/01/21 06:21:48;;;;;;;2.73;2.53;;;11.90;34.40;;;;;;5040179;28;20463;-75
2024/01/21 06:24:17;;;;;;;3.00;2.70;;;11.90;34.30;;;;;;5053960;28;20500;-74
2024/01/21 06:26:46;;;;;;;2.70;2.50;;;11.90;34.20;;;;;;5053459;28;20438;-73
2024/01/21 06:29:15;;;;;;;3.03;2.77;;;11.90;34.20;;;;;;5053793;28;20481;-75
2024/01/21 06:31:43;;;;;;;2.70;2.50;;;11.90;34.00;;;;;;5053565;28;20538;-75
2024/01/21 06:34:11;;;;;;;2.57;2.37;;;11.90;34.20;;;;;;5053597;28;20557;-75
2024/01/21 06:36:39;;;;;;;2.53;2.33;;;11.90;34.10;;;;;;5053214;28;20532;-74
2024/01/21 06:39:07;;;;;;;2.53;2.33;;;11.90;34.10;;;;;;5050742;28;20481;-75
2024/01/21 06:41:36;;;;;;;2.57;2.37;;;11.90;34.00;;;;;;5052967;28;20454;-75
2024/01/21 06:44:05;;;;;;;4.00;2.47;;;11.90;33.90;;;;;;5049363;28;20537;-75
2024/01/21 06:46:34;;;;;;;2.50;2.30;;;11.90;33.90;;;;;;5051104;28;20435;-73
2024/01/21 06:49:02;;;;;;;2.97;2.63;;;11.90;33.90;;;;;;5054163;28;20457;-75
2024/01/21 06:51:42;;;;;;;2.53;2.33;;;11.90;33.90;;;;;;5053578;28;20473;-74
2024/01/21 06:54:10;;;;;;;2.40;2.20;;;11.90;33.70;;;;;;5051926;28;20501;-75
2024/01/21 06:56:38;;;;;;;2.07;1.97;;;11.90;33.70;;;;;;5052873;28;20446;-75
2024/01/21 06:59:08;;;;;;;2.50;2.30;;;11.90;33.40;;;;;;5053327;28;20466;-75
2024/01/21 07:01:41;;;;;;;3.00;2.70;;;11.90;33.50;;;;;;5052924;28;20438;-75
2024/01/21 07:04:09;;;;;;;2.83;2.63;;;11.90;33.40;;;;;;5052822;28;20447;-75
2024/01/21 07:06:39;;;;;;;2.43;2.23;;;11.90;33.50;;;;;;5052134;28;20954;-73
2024/01/21 07:09:08;;;;;;;2.70;2.37;;;11.90;33.40;;;;;;5052373;28;20431;-75
2024/01/21 07:11:37;;;;;;;3.60;2.63;;;11.90;33.30;;;;;;5052227;28;20454;-76
2024/01/21 07:14:05;;;;;;;2.90;2.70;;;11.90;33.50;;;;;;5052576;28;20532;-76
2024/01/21 07:16:34;;;;;;;2.60;2.40;;;12.00;33.40;;;;;;5052902;28;20496;-75
2024/01/21 07:19:03;;;;;;;2.43;2.33;;;11.90;33.10;;;;;;5052061;28;20528;-76
2024/01/21 07:21:31;;;;;;;2.63;2.47;;;11.90;33.30;;;;;;5053017;28;20442;-76
2024/01/21 07:24:00;;;;;;;2.97;2.70;;;11.90;33.20;;;;;;5048336;28;20470;-75
2024/01/21 07:26:29;;;;;;;2.63;2.37;;;11.90;33.20;;;;;;5052779;28;20462;-74
2024/01/21 07:28:57;;;;;;;2.30;2.10;;;12.00;33.10;;;;;;5052860;28;20466;-74
2024/01/21 07:31:25;;;;;;;2.53;2.33;;;12.00;32.80;;;;;;5053085;28;20470;-77
2024/01/21 07:33:54;;;;;;;4.17;2.70;;;12.00;33.00;;;;;;5052077;28;20472;-75
2024/01/21 07:36:23;;;;;;;2.73;2.53;;;12.00;32.80;;;;;;5048373;28;20490;-76
2024/01/21 07:38:51;;;;;;;3.50;2.10;;;12.00;32.80;;;;;;5052436;28;20482;-76
2024/01/21 07:41:19;;;;;;;2.67;2.47;;;12.00;32.60;;;;;;5048980;28;20542;-74
2024/01/21 07:43:47;;;;;;;2.60;2.40;;;12.10;32.80;;;;;;5051042;28;20565;-76
2024/01/21 07:46:15;;;;;;;2.23;2.13;;;12.10;32.80;;;;;;5052567;28;20443;-76
2024/01/21 07:48:43;;;;;;;2.37;2.17;;;12.10;32.70;;;;;;5052518;28;20542;-76
2024/01/21 07:51:12;;;;;;;2.40;2.20;;;12.10;32.60;;;;;;5052941;28;20435;-76
2024/01/21 07:53:40;;;;;;;2.13;2.00;;;12.00;32.50;;;;;;5051916;28;20470;-76
2024/01/21 07:56:08;;;;;;;2.60;2.40;;;12.10;32.50;;;;;;5052393;28;20430;-76
2024/01/21 07:58:36;;;;;;;2.23;2.03;;;12.10;33.00;;;;;;5050970;28;20474;-76
2024/01/21 08:01:10;;;;;;;2.30;2.20;;;12.10;32.40;;;;;;5051419;28;20445;-75
2024/01/21 08:03:38;;;;;;;2.40;2.13;;;12.10;32.20;;;;;;5051962;28;20478;-75
2024/01/21 08:06:07;;;;;;;2.40;2.20;;;12.10;32.10;;;;;;5052412;28;20447;-74
2024/01/21 08:08:36;;;;;;;4.80;2.23;;;12.10;32.00;;;;;;5045221;28;20432;-76
2024/01/21 08:11:04;;;;;;;2.57;2.37;;;12.10;32.10;;;;;;5044747;28;20430;-76
2024/01/21 08:13:33;;;;;;;2.13;2.03;;;12.10;32.10;;;;;;5051597;28;20454;-77
2024/01/21 08:16:01;;;;;;;1.93;1.83;;;12.10;31.90;;;;;;5052106;28;20443;-76
2024/01/21 08:18:30;;;;;;;2.00;1.90;;;12.20;31.90;;;;;;5052079;28;20477;-77
2024/01/21 08:21:01;;;;;;;4.27;2.43;;;12.20;31.90;;;;;;5050620;28;20443;-75
2024/01/21 08:23:29;;;;;;;2.47;2.27;;;12.20;31.90;;;;;;5046940;28;20497;-74
2024/01/21 08:25:59;;;;;;;2.80;2.60;;;12.20;31.80;;;;;;5048155;28;20874;-76
2024/01/21 08:28:27;;;;;;;2.00;1.90;;;12.20;31.80;;;;;;5051752;28;20438;-76
2024/01/21 08:30:55;;;;;;;3.47;2.57;;;12.20;31.90;;;;;;5058336;28;21020;-76
2024/01/21 08:33:23;;;;;;;2.10;2.00;;;12.30;31.80;;;;;;5051224;28;20466;-72
2024/01/21 08:35:51;;;;;;;2.17;2.07;;;12.30;31.90;;;;;;5050851;28;20446;-75
2024/01/21 08:38:19;;;;;;;2.30;2.13;;;12.30;31.90;;;;;;5050338;28;20462;-75
2024/01/21 08:40:47;;;;;;;2.50;2.30;;;12.30;32.00;;;;;;5053253;28;20470;-75
2024/01/21 08:43:16;;;;;;;2.33;2.13;;;12.30;31.90;;;;;;5048113;28;20565;-75
2024/01/21 08:45:44;;;;;;;2.43;2.33;;;12.30;31.90;;;;;;5051080;28;20473;-75
2024/01/21 08:48:12;;;;;;;2.20;2.10;;;12.40;32.00;;;;;;5053227;28;20430;-74
2024/01/21 08:50:40;;;;;;;2.43;2.23;;;12.40;32.00;;;;;;5054546;28;20439;-74
2024/01/21 08:53:08;;;;;;;3.63;2.30;;;12.40;32.00;;;;;;5050261;28;20497;-75
2024/01/21 08:55:36;;;;;;;2.20;1.80;;;12.40;32.00;;;;;;5047246;28;20478;-75
2024/01/21 08:58:04;;;;;;;2.10;2.00;;;12.50;32.00;;;;;;5051614;28;20561;-76
2024/01/21 09:00:33;;;;;;;2.53;2.33;;;12.50;32.00;;;;;;5060729;28;20469;-74
2024/01/21 09:03:02;;;;;;;2.80;1.90;;;12.50;32.00;;;;;;5068892;28;20478;-75
2024/01/21 09:05:30;;;;;;;2.37;2.17;;;12.50;32.00;;;;;;5069543;28;20717;-77
2024/01/21 09:07:57;;;;;;;2.60;2.40;;;12.50;32.10;;;;;;5069756;28;20438;-75
2024/01/21 09:10:26;;;;;;;2.30;2.20;;;12.50;32.10;;;;;;5049216;28;20478;-75
2024/01/21 09:12:54;;;;;;;3.40;2.60;;;12.60;32.20;;;;;;5052767;28;20462;-75
2024/01/21 09:15:23;;;;;;;2.83;2.20;;;12.60;32.10;;;;;;5058809;28;20502;-74
2024/01/21 09:17:52;;;;;;;2.47;2.27;;;12.60;32.00;;;;;;5052444;28;20451;-75
2024/01/21 09:20:20;;;;;;;1.90;1.80;;;12.70;32.10;;;;;;5054086;28;20965;-75
2024/01/21 09:22:48;;;;;;;2.70;2.50;;;12.70;32.00;;;;;;5050527;28;20478;-75
2024/01/21 09:25:16;;;;;;;2.40;2.30;;;12.70;32.00;;;;;;5052478;28;20503;-76
2024/01/21 09:27:44;;;;;;;3.50;2.00;;;12.70;32.00;;;;;;5051882;28;20466;-75
2024/01/21 09:30:13;;;;;;;3.23;2.27;;;12.80;32.10;;;;;;5052501;28;20423;-75
2024/01/21 09:32:40;;;;;;;2.23;2.13;;;12.80;32.10;;;;;;5057919;28;20452;-75
2024/01/21 09:35:10;;;;;;;2.30;2.20;;;12.80;32.10;;;;;;5033754;28;20431;-75
2024/01/21 09:37:38;;;;;;;3.20;2.90;;;12.90;32.20;;;;;;5047401;28;20465;-75
2024/01/21 09:40:09;;;;;;;3.77;2.57;;;12.90;32.20;;;;;;5055115;28;20527;-75
2024/01/21 09:42:37;;;;;;;3.00;2.53;;;12.90;32.10;;;;;;5055713;28;20497;-74
2024/01/21 09:45:06;;;;;;;2.90;2.67;;;12.90;32.70;;;;;;5061800;28;20446;-73
2024/01/21 09:47:34;;;;;;;3.63;2.47;;;13.00;32.10;;;;;;5059626;28;20446;-75
2024/01/21 09:50:02;;;;;;;2.63;2.43;;;13.00;32.10;;;;;;5059349;28;20435;-76
2024/01/21 09:52:32;;;;;;;2.93;2.67;;;13.10;32.20;;;;;;5054811;28;20523;-75
2024/01/21 09:55:00;;;;;;;2.53;2.33;;;13.10;32.00;;;;;;5034887;28;20447;-74
2024/01/21 09:57:28;;;;;;;2.70;2.50;;;13.20;32.10;;;;;;5042651;28;20438;-75
2024/01/21 09:59:56;;;;;;;2.70;2.40;;;13.20;31.90;;;;;;5057503;28;20473;-76
2024/01/21 10:02:24;;;;;;;2.83;2.63;;;13.20;31.80;;;;;;5065497;28;20469;-75
2024/01/21 10:04:52;;;;;;;4.30;2.80;;;13.20;31.90;;;;;;5064972;28;20512;-74
2024/01/21 10:07:20;;;;;;;4.60;3.10;;;13.30;31.90;;;;;;5047342;28;20434;-75
2024/01/21 10:09:53;;;;;;;4.20;2.90;;;13.30;31.90;;;;;;5061318;28;20450;-76
2024/01/21 10:12:23;;;;;;;4.77;3.40;;;13.30;31.80;;;;;;5058261;28;20456;-75
2024/01/21 10:14:51;;;;;;;3.73;3.13;;;13.30;31.80;;;;;;5049361;28;20451;-73
2024/01/21 10:17:23;;;;;;;4.23;3.50;;;13.30;31.80;;;;;;5038916;28;20470;-75
2024/01/21 10:19:53;;;;;;;3.90;3.27;;;13.30;31.90;;;;;;5054159;28;20469;-75
2024/01/21 10:22:23;;;;;;;3.20;3.00;;;13.30;31.90;;;;;;5053870;28;20474;-75
2024/01/21 10:24:51;;;;;;;3.33;3.03;;;13.40;32.20;;;;;;5054313;28;20514;-74
2024/01/21 10:27:21;;;;;;;3.73;3.40;;;13.40;32.20;;;;;;5054378;28;20447;-76
2024/01/21 10:29:49;;;;;;;3.83;3.43;;;13.30;32.30;;;;;;5053405;28;20484;-75
2024/01/21 10:32:18;;;;;;;4.50;3.37;;;13.40;32.50;;;;;;5052889;28;21011;-75
2024/01/21 10:34:49;;;;;;;3.33;3.10;;;13.40;32.60;;;;;;5054623;28;20434;-75
2024/01/21 10:37:17;;;;;;;3.77;3.10;;;13.30;32.60;;;;;;5054101;28;20422;-73
2024/01/21 10:39:46;;;;;;;3.27;2.97;;;13.40;32.70;;;;;;5054037;28;20565;-75
2024/01/21 10:42:14;;;;;;;3.63;3.33;;;13.40;32.90;;;;;;5053182;28;20930;-74
2024/01/21 10:44:44;;;;;;;3.87;3.50;;;13.50;33.00;;;;;;5062620;28;20513;-75
2024/01/21 10:47:12;;;;;;;4.63;3.80;;;13.50;32.90;;;;;;5072896;28;20448;-74
2024/01/21 10:49:40;;;;;;;5.00;3.30;;;13.60;32.90;;;;;;5067740;28;20449;-76
2024/01/21 10:52:08;;;;;;;3.70;3.30;;;13.50;32.80;;;;;;5068950;28;20459;-74
2024/01/21 10:54:37;;;;;;;4.27;3.77;;;13.50;33.00;;;;;;5054291;28;20446;-75
2024/01/21 10:57:06;;;;;;;3.97;3.57;;;13.50;32.90;;;;;;5053674;28;20434;-74
2024/01/21 10:59:36;;;;;;;4.20;3.63;;;13.60;33.20;;;;;;5054002;28;20498;-76
2024/01/21 11:02:05;;;;;;;3.47;3.20;;;13.60;33.20;;;;;;5051391;28;20431;-75
2024/01/21 11:04:35;;;;;;;4.20;3.80;;;13.60;33.20;;;;;;5051969;28;20473;-76
2024/01/21 11:07:05;;;;;;;4.47;3.27;;;13.50;33.20;;;;;;5052125;28;20938;-76
2024/01/21 11:09:36;;;;;;;3.90;3.20;;;13.50;33.50;;;;;;5052763;28;20438;-76
2024/01/21 11:12:05;;;;;;;4.90;3.83;;;13.60;33.60;;;;;;5052339;28;20443;-75
2024/01/21 11:14:33;;;;;;;4.10;3.53;;;13.60;33.60;;;;;;5052399;28;20442;-77
2024/01/21 11:17:02;;;;;;;4.70;4.23;;;13.60;33.80;;;;;;5052314;28;20449;-76
2024/01/21 11:19:40;;;;;;;4.00;3.60;;;13.60;34.00;;;;;;5051938;28;20494;-77
2024/01/21 11:22:10;;;;;;;4.17;3.67;;;13.60;33.80;;;;;;5051721;28;20497;-75
2024/01/21 11:24:38;;;;;;;4.40;3.77;;;13.70;33.90;;;;;;5051915;28;20477;-77
2024/01/21 11:27:07;;;;;;;6.63;4.13;;;13.70;33.90;;;;;;5051965;28;20461;-77
2024/01/21 11:29:37;;;;;;;6.00;3.47;;;13.70;33.90;;;;;;5052817;28;20505;-77
2024/01/21 11:32:08;;;;;;;4.23;3.67;;;13.80;34.20;;;;;;5052985;28;20537;-78
2024/01/21 11:34:38;;;;;;;3.57;3.27;;;13.80;34.20;;;;;;5053001;28;20797;-76
2024/01/21 11:37:08;;;;;;;5.07;4.10;;;13.90;34.20;;;;;;5052571;28;20449;-75
2024/01/21 11:39:36;;;;;;;4.53;3.70;;;13.90;34.10;;;;;;5052479;28;20596;-78
2024/01/21 11:42:05;;;;;;;4.63;3.77;;;13.90;34.20;;;;;;5051802;28;20441;-78
2024/01/21 11:44:33;;;;;;;4.37;3.50;;;13.80;34.20;;;;;;5052084;28;20431;-77
2024/01/21 11:47:02;;;;;;;4.97;3.43;;;13.90;34.40;;;;;;5052076;28;20522;-77
2024/01/21 11:49:30;;;;;;;5.60;3.83;;;13.90;34.50;;;;;;5051313;28;20438;-77
2024/01/21 11:51:59;;;;;;;4.73;4.07;;;13.90;34.60;;;;;;5051277;28;20469;-76
2024/01/21 11:54:30;;;;;;;6.77;4.00;;;13.90;34.60;;;;;;5051506;28;20480;-76
2024/01/21 11:56:58;;;;;;;4.30;3.90;;;13.90;34.70;;;;;;5051261;28;20557;-78
2024/01/21 11:59:26;;;;;;;5.77;4.40;;;13.90;34.80;;;;;;5051866;28;20474;-77
2024/01/21 12:01:56;;;;;;;5.17;4.30;;;14.00;34.90;;;;;;5051007;28;20533;-75
2024/01/21 12:04:28;;;;;;;3.90;3.50;;;14.00;35.00;;;;;;5051508;28;21033;-77
2024/01/21 12:06:56;;;;;;;5.40;4.40;;;14.00;35.00;;;;;;5051173;28;20453;-78
2024/01/21 12:09:24;;;;;;;3.93;3.53;;;13.90;34.90;;;;;;5051478;28;20445;-77
2024/01/21 12:11:54;;;;;;;4.33;3.73;;;13.90;35.10;;;;;;5052392;28;20478;-76
2024/01/21 12:14:22;;;;;;;7.47;4.63;;;14.00;35.00;;;;;;5049659;28;20470;-76
2024/01/21 12:16:54;;;;;;;5.57;4.30;;;14.00;35.20;;;;;;5055487;28;20442;-77
2024/01/21 12:19:24;;;;;;;4.73;4.23;;;14.00;35.30;;;;;;5054038;28;20445;-75
2024/01/21 12:21:53;;;;;;;4.90;4.00;;;14.00;35.50;;;;;;5056815;28;20458;-75
2024/01/21 12:24:23;;;;;;;7.10;4.80;;;14.00;35.50;;;;;;5059393;28;20454;-77
2024/01/21 12:26:53;;;;;;;5.13;3.93;;;14.00;35.60;;;;;;5056260;28;20484;-76
2024/01/21 12:29:23;;;;;;;4.50;4.10;;;14.00;35.70;;;;;;5055883;28;20450;-75
2024/01/21 12:31:51;;;;;;;4.80;4.00;;;14.00;35.90;;;;;;5056923;28;20438;-76
2024/01/21 12:34:19;;;;;;;7.97;5.67;;;14.00;35.90;;;;;;5077433;28;20446;-78
2024/01/21 12:36:49;;;;;;;10.73;5.80;;;13.80;37.50;;;;;;5077556;28;20419;-78
2024/01/21 12:39:21;;;;;;;7.77;5.77;;;10.00;41.70;;;;;;5070604;28;20451;-78
2024/01/21 12:41:50;;;;;;;9.37;6.20;;;10.10;46.40;;;;;;5049612;28;20494;-79
2024/01/21 12:44:18;;;;;;;8.67;6.00;;;11.00;45.50;;;;;;5055632;28;20470;-78
2024/01/21 12:46:51;;;;;;;8.43;5.13;;;11.80;44.10;;;;;;5054110;28;20446;-77
2024/01/21 12:49:21;;;;;;;11.97;5.57;;;12.30;42.80;;;;;;5054515;28;20472;-77
2024/01/21 12:51:54;;;;;;;8.17;5.30;;;12.60;41.80;;;;;;5047929;28;20461;-75
2024/01/21 12:54:24;;;;;;;8.40;5.93;;;12.90;41.10;;;;;;5048825;28;21041;-77